La Platte, Nebraska
Current Conditions -  °F | °C
As of 8:58 AM on Sunday 21 Dec 2014 (Local Time) from KOFF Reporting Station
Overcast Overcast  
Wind Chill: 30°   Ceiling: 700
Heat Index: 38°   Visibility: 8mi
Dew Point: 36°   Wind: 12mph
Humidity: 92%   Direction: 160°SSE
Pressure: 29.88"   Gusts: NA
Location:  41.1019°N, 95.9545°W
Report Text: KOFF 211458Z AUTO 16010KT 8SM OVC007 03/02 A2988 RMK AO2 SLP131 T00320020 57014
Loading
Personal Weather Stations






























Interactive Weather Map New forecast layout! Learn more

10-Day Weather Forecast

Advertisements
Track Severe Weather on mobile